Time;durP1;ratioP1;P1;durP2;ratioP2;P2;SDS_P1;SDS_P2;PMS_P1;PMS_P2;Temp;Humidity;BMP_temperature;BMP_pressure;BME280_temperature;BME280_humidity;BME280_pressure;Samples;Min_cycle;Max_cycle;Signal;HPM_P1;HPM_P2
2022/07/27 00:01:39;;;;;;;5.85;5.30;;;;;;;19.71;71.96;99233.36;1684101;85;21027;-68
2022/07/27 00:04:06;;;;;;;7.12;6.08;;;;;;;19.69;71.68;99232.09;1679752;85;21054;-70
2022/07/27 00:06:35;;;;;;;6.62;5.12;;;;;;;19.68;71.64;99235.94;1656365;86;21044;-67
2022/07/27 00:09:03;;;;;;;4.50;4.10;;;;;;;19.62;71.69;99239.37;1684036;85;21032;-71
2022/07/27 00:11:32;;;;;;;3.67;3.37;;;;;;;19.38;72.09;99235.71;1641484;86;21002;-68
2022/07/27 00:13:59;;;;;;;3.33;2.80;;;;;;;19.33;72.14;99237.23;1686379;84;20968;-71
2022/07/27 00:16:25;;;;;;;3.42;3.20;;;;;;;19.44;71.75;99230.39;1689819;84;21498;-70
2022/07/27 00:18:54;;;;;;;4.08;3.30;;;;;;;19.62;71.23;99239.94;1664057;86;21066;-71
2022/07/27 00:21:25;;;;;;;6.53;3.52;;;;;;;19.80;70.55;99238.28;1664258;86;20967;-71
2022/07/27 00:23:53;;;;;;;4.15;3.10;;;;;;;20.01;69.81;99239.21;1685403;84;21257;-70
2022/07/27 00:26:20;;;;;;;6.40;4.25;;;;;;;20.23;69.04;99241.52;1670638;84;21004;-68
2022/07/27 00:28:48;;;;;;;3.70;3.40;;;;;;;20.41;68.33;99241.19;1664913;86;21603;-70
2022/07/27 00:31:15;;;;;;;9.63;3.55;;;;;;;20.55;67.75;99238.25;1665714;86;20956;-71
2022/07/27 00:33:42;;;;;;;7.08;4.12;;;;;;;20.67;67.27;99242.45;1649908;86;21548;-70
2022/07/27 00:36:09;;;;;;;4.17;3.30;;;;;;;20.76;66.85;99244.61;1683702;84;21133;-70
2022/07/27 00:38:37;;;;;;;3.67;3.12;;;;;;;20.84;66.26;99236.13;1649223;84;21536;-69
2022/07/27 00:41:03;;;;;;;3.22;2.75;;;;;;;20.98;65.57;99238.06;1694542;84;21610;-70
2022/07/27 00:43:31;;;;;;;6.15;3.60;;;;;;;20.98;65.57;99238.06;1638918;87;21075;-70
2022/07/27 00:45:57;;;;;;;5.90;5.37;;;;;;;21.05;64.97;99244.40;1685898;84;21055;-72
2022/07/27 00:48:24;;;;;;;6.97;5.33;;;;;;;21.09;65.12;99246.14;1682199;84;21231;-69
2022/07/27 00:50:51;;;;;;;6.58;5.95;;;;;;;21.06;65.35;99237.78;1660078;84;21019;-70
2022/07/27 00:53:18;;;;;;;6.75;6.10;;;;;;;21.00;65.53;99239.11;1676518;85;21052;-68
2022/07/27 00:55:45;;;;;;;4.55;3.60;;;;;;;20.95;65.65;99236.56;1639308;86;21553;-68
2022/07/27 00:58:13;;;;;;;5.42;4.92;;;;;;;20.89;65.69;99234.58;1681148;84;20956;-69
2022/07/27 01:00:39;;;;;;;5.90;5.30;;;;;;;20.87;65.62;99236.27;1686412;84;21178;-69
2022/07/27 01:03:06;;;;;;;5.17;4.40;;;;;;;20.84;65.90;99236.13;1675802;84;21510;-68
2022/07/27 01:05:35;;;;;;;6.05;5.40;;;;;;;20.76;66.40;99235.05;1687996;84;21055;-70
2022/07/27 01:08:04;;;;;;;6.85;4.62;;;;;;;20.68;66.68;99234.50;1665944;86;21098;-68
2022/07/27 01:10:31;;;;;;;2.98;2.75;;;;;;;20.51;66.94;99231.03;1648808;84;21652;-69
2022/07/27 01:12:58;;;;;;;6.58;3.25;;;;;;;20.44;66.84;99239.72;1672981;84;21163;-71
2022/07/27 01:15:25;;;;;;;3.92;2.87;;;;;;;20.47;66.62;99227.36;1664187;86;21604;-69
2022/07/27 01:17:53;;;;;;;3.05;2.77;;;;;;;20.51;66.25;99226.38;1664895;86;20968;-69
2022/07/27 01:20:20;;;;;;;3.60;3.30;;;;;;;20.57;65.89;99218.24;1672248;84;21043;-70
2022/07/27 01:22:47;;;;;;;2.80;2.60;;;;;;;20.64;65.97;99218.52;1692572;84;21087;-68
2022/07/27 01:25:14;;;;;;;4.65;4.17;;;;;;;20.65;65.65;99222.06;1665919;86;21169;-69
2022/07/27 01:27:40;;;;;;;5.50;5.00;;;;;;;20.64;66.17;99219.89;1665548;86;21139;-70
2022/07/27 01:30:29;;;;;;;6.35;4.78;;;;;;;20.59;66.29;99217.33;1666013;86;21056;-68
2022/07/27 01:33:00;;;;;;;3.52;3.22;;;;;;;20.56;66.38;99226.76;1664362;86;21568;-66
2022/07/27 01:35:28;;;;;;;3.00;2.77;;;;;;;20.55;66.17;99229.25;1664411;86;21104;-68
2022/07/27 01:37:56;;;;;;;8.05;2.50;;;;;;;20.59;65.59;99226.90;1664540;86;21891;-68
2022/07/27 01:40:24;;;;;;;3.08;2.87;;;;;;;20.65;65.10;99223.42;1665580;86;21008;-70
2022/07/27 01:42:51;;;;;;;3.33;3.02;;;;;;;20.74;64.75;99227.73;1665617;84;21063;-71
2022/07/27 01:45:18;;;;;;;3.10;2.80;;;;;;;20.83;64.45;99226.31;1672650;85;21043;-72
2022/07/27 01:47:44;;;;;;;2.95;2.67;;;;;;;20.93;64.20;99230.61;1682196;85;21041;-71
2022/07/27 01:50:11;;;;;;;4.10;2.80;;;;;;;21.01;63.86;99231.13;1683851;85;21904;-72
2022/07/27 01:52:39;;;;;;;2.90;2.70;;;;;;;21.06;63.67;99227.64;1680709;84;21063;-73
2022/07/27 01:55:09;;;;;;;3.72;3.30;;;;;;;21.13;63.43;99232.07;1694550;84;21031;-71
2022/07/27 01:57:36;;;;;;;3.50;2.47;;;;;;;21.19;63.17;99233.49;1641023;86;21068;-71
2022/07/27 02:00:06;;;;;;;8.60;2.92;;;;;;;21.24;62.88;99227.83;1666989;84;21120;-71
2022/07/27 02:02:35;;;;;;;4.72;4.22;;;;;;;21.28;62.68;99230.13;1673365;84;22033;-70
2022/07/27 02:05:05;;;;;;;2.80;2.52;;;;;;;21.33;62.46;99231.87;1665974;86;20952;-70
2022/07/27 02:07:32;;;;;;;5.78;3.72;;;;;;;21.38;62.20;99237.72;1678344;85;21068;-71
2022/07/27 02:09:59;;;;;;;3.27;2.98;;;;;;;21.41;62.07;99228.83;1682343;85;21013;-70
2022/07/27 02:12:34;;;;;;;6.17;4.25;;;;;;;21.44;62.04;99231.70;1665716;86;21550;-71
2022/07/27 02:15:14;;;;;;;3.80;3.40;;;;;;;21.44;61.97;99231.70;1666124;86;21188;-72
2022/07/27 02:17:41;;;;;;;3.27;2.98;;;;;;;21.45;61.87;99235.23;1664423;86;20992;-73
2022/07/27 02:20:09;;;;;;;3.45;3.15;;;;;;;21.45;61.64;99236.04;1665062;86;22229;-73
2022/07/27 02:22:36;;;;;;;3.77;2.95;;;;;;;21.45;61.43;99232.50;1640405;86;20997;-74
2022/07/27 02:25:03;;;;;;;3.62;2.83;;;;;;;21.46;61.08;99230.81;1669242;84;21592;-71
2022/07/27 02:27:32;;;;;;;3.90;2.83;;;;;;;21.48;60.69;99229.12;1680911;84;21000;-71
2022/07/27 02:30:00;;;;;;;4.40;3.33;;;;;;;21.50;60.63;99230.94;1645923;84;21608;-73
2022/07/27 02:32:28;;;;;;;4.00;3.65;;;;;;;21.50;60.70;99234.48;1693927;84;21075;-71
2022/07/27 02:34:55;;;;;;;4.80;3.27;;;;;;;21.50;60.85;99233.11;1666604;84;21582;-72
2022/07/27 02:37:21;;;;;;;6.17;4.17;;;;;;;21.46;61.16;99234.11;1664706;86;21055;-71
2022/07/27 02:39:48;;;;;;;4.95;3.98;;;;;;;21.44;61.65;99235.80;1664693;86;21305;-72
2022/07/27 02:42:15;;;;;;;3.80;3.20;;;;;;;21.39;61.80;99238.73;1669198;84;20976;-71
2022/07/27 02:44:42;;;;;;;3.50;3.20;;;;;;;21.36;61.71;99240.77;1665724;86;21566;-73
2022/07/27 02:47:09;;;;;;;3.70;3.27;;;;;;;21.36;61.57;99246.80;1665924;86;21064;-71
2022/07/27 02:49:36;;;;;;;4.97;2.77;;;;;;;21.37;61.42;99242.95;1664478;86;21059;-72
2022/07/27 02:52:04;;;;;;;4.20;2.55;;;;;;;21.38;61.20;99243.19;1664466;86;21868;-71
2022/07/27 02:54:31;;;;;;;3.35;3.15;;;;;;;21.41;61.08;99245.25;1639568;86;21610;-71
2022/07/27 02:57:01;;;;;;;4.47;3.65;;;;;;;21.41;60.95;99244.69;1664378;86;21063;-71
2022/07/27 02:59:30;;;;;;;5.33;3.12;;;;;;;21.42;61.04;99244.92;1673674;84;21103;-71
2022/07/27 03:01:56;;;;;;;5.85;5.05;;;;;;;21.40;61.45;99245.00;1677670;84;21064;-72
2022/07/27 03:04:24;;;;;;;4.83;4.05;;;;;;;21.31;62.83;99247.80;1663841;84;21756;-72
2022/07/27 03:06:50;;;;;;;6.50;4.45;;;;;;;21.15;63.90;99246.20;1692631;84;20987;-70
2022/07/27 03:09:17;;;;;;;7.35;4.80;;;;;;;20.97;64.52;99247.95;1690326;84;21023;-73
2022/07/27 03:11:45;;;;;;;8.30;4.80;;;;;;;20.87;65.07;99251.30;1692613;84;20971;-72
2022/07/27 03:14:13;;;;;;;5.12;4.58;;;;;;;20.83;65.50;99245.45;1682841;84;21565;-70
2022/07/27 03:16:39;;;;;;;6.10;5.35;;;;;;;20.81;65.49;99246.36;1664709;85;21176;-70
2022/07/27 03:19:06;;;;;;;4.03;3.62;;;;;;;20.80;65.69;99241.45;1662902;85;21577;-72
2022/07/27 03:21:33;;;;;;;6.95;5.28;;;;;;;20.82;65.04;99250.67;1663414;86;21100;-71
2022/07/27 03:24:02;;;;;;;6.50;5.05;;;;;;;20.85;65.38;99244.01;1656243;84;21083;-71
2022/07/27 03:26:29;;;;;;;3.83;3.40;;;;;;;20.85;65.75;99246.74;1692901;84;21020;-71
2022/07/27 03:28:56;;;;;;;5.30;3.45;;;;;;;20.81;65.25;99247.73;1675478;84;21093;-70
2022/07/27 03:31:24;;;;;;;8.45;3.25;;;;;;;20.84;64.58;99251.16;1663538;86;21088;-69
2022/07/27 03:33:51;;;;;;;3.83;3.15;;;;;;;20.92;64.11;99261.25;1663321;86;21060;-71
2022/07/27 03:36:17;;;;;;;4.90;3.10;;;;;;;20.98;63.66;99256.41;1663517;86;21051;-71
2022/07/27 03:38:44;;;;;;;4.05;3.52;;;;;;;21.03;63.45;99258.95;1663326;86;21088;-72
2022/07/27 03:41:11;;;;;;;9.43;4.90;;;;;;;21.06;64.00;99258.28;1663965;86;21114;-70
2022/07/27 03:43:39;;;;;;;7.40;5.80;;;;;;;21.06;64.48;99259.09;1664201;85;20980;-71
2022/07/27 03:46:06;;;;;;;5.42;3.72;;;;;;;21.02;65.00;99256.78;1664803;85;21539;-70
2022/07/27 03:48:33;;;;;;;4.45;3.70;;;;;;;20.95;64.45;99257.07;1664189;85;21045;-70
2022/07/27 03:51:02;;;;;;;4.40;3.77;;;;;;;20.98;63.58;99261.31;1663439;86;21126;-72
2022/07/27 03:53:29;;;;;;;3.95;3.37;;;;;;;21.04;63.31;99257.83;1663192;86;21172;-74
2022/07/27 03:55:56;;;;;;;3.50;3.20;;;;;;;21.10;62.87;99270.19;1676231;84;21020;-73
2022/07/27 03:58:24;;;;;;;4.92;3.60;;;;;;;21.15;62.45;99265.94;1671568;84;21525;-73
2022/07/27 04:00:50;;;;;;;4.35;3.95;;;;;;;21.22;62.23;99271.67;1691915;84;21039;-73
2022/07/27 04:03:17;;;;;;;4.95;4.40;;;;;;;21.26;62.14;99269.87;1645245;85;21553;-72
2022/07/27 04:05:44;;;;;;;7.08;4.05;;;;;;;21.29;62.20;99274.11;1659504;86;21033;-70
2022/07/27 04:08:11;;;;;;;8.15;4.22;;;;;;;21.32;62.24;99268.56;1659674;86;21048;-73
2022/07/27 04:10:38;;;;;;;7.60;4.75;;;;;;;21.34;62.27;99271.78;1659854;86;21404;-71
2022/07/27 04:13:05;;;;;;;6.45;4.33;;;;;;;21.38;62.34;99274.65;1660592;86;21044;-73
2022/07/27 04:15:32;;;;;;;14.93;9.65;;;;;;;21.40;62.45;99277.84;1683280;85;21096;-73
2022/07/27 04:18:00;;;;;;;12.25;8.23;;;;;;;21.42;63.98;99275.02;1652304;85;21177;-72
2022/07/27 04:20:27;;;;;;;12.95;7.80;;;;;;;21.40;64.37;99277.28;1673084;85;22163;-74
2022/07/27 04:22:54;;;;;;;13.03;6.85;;;;;;;21.41;65.16;99275.34;1660415;86;21100;-72
2022/07/27 04:25:21;;;;;;;12.33;8.53;;;;;;;21.42;65.58;99267.38;1660147;86;21069;-72
2022/07/27 04:27:49;;;;;;;21.23;14.73;;;;;;;21.43;65.90;99273.89;1660147;86;21028;-73
2022/07/27 04:30:17;;;;;;;8.88;7.60;;;;;;;21.44;66.06;99276.84;1661322;86;21171;-73
2022/07/27 04:32:44;;;;;;;6.80;5.53;;;;;;;21.48;65.09;99277.00;1668268;85;21028;-73
2022/07/27 04:35:13;;;;;;;4.72;4.33;;;;;;;21.52;63.85;99276.57;1670182;85;20992;-74
2022/07/27 04:37:41;;;;;;;4.87;4.40;;;;;;;21.58;63.22;99272.52;1659888;86;21067;-74
2022/07/27 04:40:12;;;;;;;4.80;4.22;;;;;;;21.63;62.70;99277.20;1673925;85;21120;-73
2022/07/27 04:42:39;;;;;;;6.47;4.55;;;;;;;21.68;62.51;99270.72;1689542;85;21153;-73
2022/07/27 04:45:06;;;;;;;6.35;4.53;;;;;;;21.73;62.42;99273.27;1661249;86;21106;-73
2022/07/27 04:47:35;;;;;;;6.30;4.15;;;;;;;21.79;62.24;99271.13;1638709;86;21087;-71
2022/07/27 04:50:02;;;;;;;6.35;4.90;;;;;;;21.84;61.97;99273.67;1646454;85;21700;-72
2022/07/27 04:52:29;;;;;;;5.78;3.87;;;;;;;21.87;61.78;99272.42;1661333;86;21116;-73
2022/07/27 04:54:55;;;;;;;5.97;3.72;;;;;;;21.93;61.68;99273.87;1661079;86;21660;-73
2022/07/27 04:57:22;;;;;;;4.45;4.05;;;;;;;21.99;61.52;99275.84;1682388;85;21608;-71
2022/07/27 04:59:49;;;;;;;4.65;4.25;;;;;;;22.03;61.22;99276.20;1689359;85;21013;-72
2022/07/27 05:02:17;;;;;;;7.00;4.78;;;;;;;22.10;61.24;99274.30;1680852;84;20976;-73
2022/07/27 05:04:48;;;;;;;4.60;4.12;;;;;;;22.15;61.30;99276.83;1666751;84;21028;-71
2022/07/27 05:07:15;;;;;;;5.67;4.35;;;;;;;22.21;61.16;99274.09;1648934;86;21513;-72
2022/07/27 05:09:43;;;;;;;9.50;4.45;;;;;;;22.28;60.96;99283.14;1683793;85;21008;-73
2022/07/27 05:12:09;;;;;;;8.23;4.35;;;;;;;22.32;60.95;99282.13;1666044;86;21061;-71
2022/07/27 05:14:36;;;;;;;6.90;4.40;;;;;;;22.37;61.01;99284.67;1672514;84;21035;-71
2022/07/27 05:17:04;;;;;;;7.17;4.80;;;;;;;22.44;61.06;99288.23;1680762;84;21508;-72
2022/07/27 05:19:32;;;;;;;5.22;3.77;;;;;;;22.50;61.01;99288.23;1635421;87;21148;-74
2022/07/27 05:21:59;;;;;;;6.83;3.67;;;;;;;22.56;60.75;99290.43;1637749;87;21028;-71
2022/07/27 05:24:26;;;;;;;4.72;4.28;;;;;;;22.64;60.62;99290.69;1645937;86;21035;-72
2022/07/27 05:26:54;;;;;;;4.62;3.75;;;;;;;22.70;60.32;99290.69;1660993;85;21085;-72
2022/07/27 05:29:21;;;;;;;3.60;3.30;;;;;;;22.76;59.82;99290.16;1682465;85;21123;-71
2022/07/27 05:31:48;;;;;;;3.72;3.30;;;;;;;22.82;59.01;99290.19;1654871;84;21169;-70
2022/07/27 05:34:16;;;;;;;5.00;4.28;;;;;;;22.88;58.49;99290.17;1683370;85;20940;-71
2022/07/27 05:36:43;;;;;;;4.08;3.65;;;;;;;22.95;57.99;99296.47;1694593;83;21031;-73
2022/07/27 05:39:10;;;;;;;4.05;3.70;;;;;;;23.02;57.57;99294.76;1675952;84;21043;-71
2022/07/27 05:41:37;;;;;;;5.42;3.30;;;;;;;23.09;57.33;99289.28;1664667;86;21123;-72
2022/07/27 05:44:04;;;;;;;4.08;3.72;;;;;;;23.17;56.88;99300.70;1664440;86;21088;-73
2022/07/27 05:46:33;;;;;;;4.15;3.22;;;;;;;23.24;56.81;99302.33;1644286;84;21035;-74
2022/07/27 05:49:02;;;;;;;3.60;3.30;;;;;;;23.28;56.68;99301.86;1668340;84;21058;-73
2022/07/27 05:51:30;;;;;;;3.30;3.00;;;;;;;23.35;56.48;99302.91;1664621;86;21040;-71
2022/07/27 05:53:58;;;;;;;3.47;2.95;;;;;;;23.41;56.04;99298.77;1665746;86;21111;-72
2022/07/27 05:56:28;;;;;;;4.58;3.15;;;;;;;23.47;55.79;99299.36;1666279;86;20952;-70
2022/07/27 05:58:54;;;;;;;7.00;3.10;;;;;;;23.54;55.63;99302.92;1665925;86;21011;-70
2022/07/27 06:01:22;;;;;;;3.52;3.22;;;;;;;23.61;55.18;99305.30;1665834;86;21035;-72
2022/07/27 06:03:51;;;;;;;3.80;3.30;;;;;;;23.69;55.02;99304.95;1654038;86;21660;-70
2022/07/27 06:09:05;;;;;;;3.92;3.27;;;;;;;23.84;54.84;99304.22;1665575;86;21200;-73
2022/07/27 06:11:32;;;;;;;8.53;4.87;;;;;;;23.90;54.89;99302.27;1641463;86;21583;-72
2022/07/27 06:13:59;;;;;;;6.30;5.03;;;;;;;23.99;54.64;99308.19;1666269;86;21008;-72
2022/07/27 06:16:27;;;;;;;5.05;3.33;;;;;;;24.05;54.48;99303.48;1665449;86;21015;-73
2022/07/27 06:18:53;;;;;;;5.28;3.22;;;;;;;24.12;54.05;99309.20;1664398;86;21028;-72
2022/07/27 06:21:26;;;;;;;4.05;3.17;;;;;;;24.19;53.48;99310.78;1669431;84;21180;-72
2022/07/27 06:23:54;;;;;;;4.30;3.45;;;;;;;24.28;52.81;99314.19;1692465;84;21520;-73
2022/07/27 06:26:20;;;;;;;4.03;3.42;;;;;;;24.35;52.44;99312.80;1693885;84;21031;-73
2022/07/27 06:28:49;;;;;;;8.50;4.10;;;;;;;24.41;52.47;99310.02;1692378;84;21525;-72
2022/07/27 06:31:16;;;;;;;7.67;2.87;;;;;;;24.46;52.04;99310.55;1668298;84;21137;-74
2022/07/27 06:33:43;;;;;;;4.28;3.60;;;;;;;24.54;51.65;99315.11;1681076;84;21069;-71
2022/07/27 06:36:09;;;;;;;4.58;3.33;;;;;;;24.61;51.00;99318.03;1675363;84;21064;-71
2022/07/27 06:38:37;;;;;;;6.30;3.87;;;;;;;24.66;50.35;99318.35;1685742;84;21068;-73
2022/07/27 06:41:03;;;;;;;3.72;3.35;;;;;;;24.72;50.83;99314.20;1693838;84;21521;-72
2022/07/27 06:43:33;;;;;;;3.25;2.95;;;;;;;24.77;50.13;99318.06;1693986;84;21548;-72
2022/07/27 06:46:02;;;;;;;3.12;2.83;;;;;;;24.83;49.57;99312.53;1694191;84;21474;-71
2022/07/27 06:48:29;;;;;;;4.33;3.92;;;;;;;24.89;48.92;99308.37;1667179;84;20925;-71
2022/07/27 06:50:59;;;;;;;6.15;3.30;;;;;;;24.95;49.33;99317.17;1647441;86;21086;-71
2022/07/27 06:53:25;;;;;;;2.95;2.75;;;;;;;25.00;49.24;99317.71;1666266;86;21068;-73
2022/07/27 06:55:54;;;;;;;3.52;3.22;;;;;;;25.04;48.98;99315.05;1666038;86;21505;-73
2022/07/27 06:58:21;;;;;;;2.52;2.37;;;;;;;25.07;48.73;99315.73;1665673;86;21201;-72
2022/07/27 07:00:49;;;;;;;3.10;2.77;;;;;;;25.10;47.82;99315.01;1664369;86;21103;-71
2022/07/27 07:03:16;;;;;;;2.98;2.33;;;;;;;25.13;47.62;99318.45;1663792;86;21012;-72
2022/07/27 07:05:45;;;;;;;5.12;2.90;;;;;;;25.19;47.08;99312.30;1680900;84;20968;-72
2022/07/27 07:08:13;;;;;;;3.67;2.52;;;;;;;25.24;46.96;99310.42;1691332;84;21627;-73
2022/07/27 07:10:42;;;;;;;3.98;2.98;;;;;;;25.29;47.52;99310.16;1691084;84;22119;-72
2022/07/27 07:13:11;;;;;;;2.55;2.35;;;;;;;25.31;47.58;99314.16;1670054;84;20987;-71
2022/07/27 07:15:39;;;;;;;6.65;2.62;;;;;;;25.36;47.19;99313.09;1663393;86;21003;-74
2022/07/27 07:18:09;;;;;;;6.47;2.80;;;;;;;25.42;46.89;99308.31;1661555;85;21119;-73
2022/07/27 07:20:37;;;;;;;2.42;2.22;;;;;;;25.49;46.89;99316.76;1636534;87;21039;-73
2022/07/27 07:23:06;;;;;;;4.40;3.72;;;;;;;25.55;46.55;99312.61;1636162;87;21087;-70
2022/07/27 07:25:33;;;;;;;4.25;3.20;;;;;;;25.59;46.48;99316.81;1636237;87;21074;-72
2022/07/27 07:28:01;;;;;;;3.85;2.42;;;;;;;25.62;46.58;99313.33;1672384;84;21521;-71
2022/07/27 07:30:28;;;;;;;8.43;3.10;;;;;;;25.63;46.35;99312.75;1672466;84;21572;-72
2022/07/27 07:32:56;;;;;;;3.58;2.60;;;;;;;25.64;46.25;99312.41;1661857;86;21121;-71
2022/07/27 07:35:25;;;;;;;2.83;2.58;;;;;;;25.66;46.38;99308.70;1662398;86;21148;-73
2022/07/27 07:37:52;;;;;;;4.67;3.17;;;;;;;25.71;46.51;99309.80;1663544;86;21555;-73
2022/07/27 07:40:20;;;;;;;3.50;3.20;;;;;;;25.74;46.64;99309.67;1642202;86;21095;-72
2022/07/27 07:43:03;;;;;;;2.40;2.20;;;;;;;25.82;46.67;99305.91;1663116;86;20995;-71
2022/07/27 07:45:29;;;;;;;4.47;2.33;;;;;;;25.91;45.83;99309.25;1661901;86;21055;-71
2022/07/27 07:47:58;;;;;;;2.05;1.95;;;;;;;25.99;45.45;99309.03;1663369;86;21194;-73
2022/07/27 07:50:25;;;;;;;3.55;2.85;;;;;;;26.09;45.56;99306.28;1683729;84;21076;-73
2022/07/27 07:52:53;;;;;;;2.75;2.55;;;;;;;26.22;45.68;99313.30;1676215;85;20993;-73
2022/07/27 07:55:26;;;;;;;7.67;4.95;;;;;;;26.31;45.72;99313.88;1668335;84;21040;-73
2022/07/27 07:57:53;;;;;;;5.65;3.27;;;;;;;26.36;45.26;99308.07;1691132;84;21028;-75
2022/07/27 08:00:20;;;;;;;3.80;2.83;;;;;;;26.45;45.08;99314.73;1682548;84;21511;-69
2022/07/27 08:02:52;;;;;;;3.17;2.87;;;;;;;26.52;44.69;99319.02;1673487;84;21098;-72
2022/07/27 08:05:23;;;;;;;4.75;2.30;;;;;;;26.55;44.55;99318.86;1664344;85;21000;-72
2022/07/27 08:07:51;;;;;;;9.33;2.55;;;;;;;26.58;44.58;99317.53;1664421;86;21047;-75
2022/07/27 08:10:21;;;;;;;2.92;2.70;;;;;;;26.62;44.46;99319.01;1664523;86;21521;-72
2022/07/27 08:12:51;;;;;;;6.17;2.98;;;;;;;26.64;44.41;99323.56;1639087;86;21906;-74
2022/07/27 08:15:19;;;;;;;3.08;2.75;;;;;;;26.64;44.38;99320.22;1664522;86;20951;-73
2022/07/27 08:17:47;;;;;;;2.65;2.45;;;;;;;26.70;44.41;99323.48;1674406;84;21104;-72
2022/07/27 08:20:17;;;;;;;5.15;2.98;;;;;;;26.75;44.72;99325.95;1638762;87;21107;-74
2022/07/27 08:22:44;;;;;;;4.55;2.40;;;;;;;26.78;44.56;99324.63;1671908;83;21120;-73
2022/07/27 08:25:12;;;;;;;2.92;2.42;;;;;;;26.84;43.44;99316.84;1674355;85;21190;-73
2022/07/27 08:27:40;;;;;;;2.85;2.40;;;;;;;26.91;42.29;99318.36;1675938;85;21046;-73
2022/07/27 08:30:09;;;;;;;5.15;2.65;;;;;;;26.92;42.49;99319.16;1680605;84;21551;-73
2022/07/27 08:32:49;;;;;;;2.30;2.10;;;;;;;26.98;42.66;99321.84;1654992;86;21036;-73
2022/07/27 08:35:18;;;;;;;2.90;2.70;;;;;;;27.08;42.26;99314.33;1654615;86;21095;-75
2022/07/27 08:37:45;;;;;;;3.42;2.90;;;;;;;27.21;42.09;99314.34;1666236;86;21208;-71
2022/07/27 08:40:12;;;;;;;2.80;2.60;;;;;;;27.28;42.54;99313.89;1660575;85;21116;-74
2022/07/27 08:42:42;;;;;;;2.70;2.33;;;;;;;27.34;42.48;99311.00;1639397;86;21001;-74
2022/07/27 08:45:14;;;;;;;2.52;2.33;;;;;;;27.37;42.23;99310.86;1664729;85;21553;-75
2022/07/27 08:47:41;;;;;;;4.17;3.12;;;;;;;27.39;42.56;99316.80;1663044;85;21072;-74
2022/07/27 08:50:22;;;;;;;3.72;2.47;;;;;;;27.41;42.71;99308.95;1664765;86;21122;-73
2022/07/27 08:52:38;;;;;;;5.67;2.90;;;;;;;27.48;41.66;99312.41;1618192;86;21082;-78
2022/07/27 08:55:05;;;;;;;3.65;2.60;;;;;;;27.47;41.22;99306.67;1660875;86;21010;-71
2022/07/27 08:57:32;;;;;;;3.75;3.33;;;;;;;27.48;41.14;99302.13;1660786;86;21033;-71
2022/07/27 08:59:59;;;;;;;2.90;2.70;;;;;;;27.53;40.33;99309.37;1663497;86;21560;-71
2022/07/27 09:02:26;;;;;;;6.25;3.20;;;;;;;27.57;40.36;99311.02;1666017;86;21169;-72
2022/07/27 09:04:54;;;;;;;3.92;3.52;;;;;;;27.66;40.30;99310.73;1662118;86;21520;-73
2022/07/27 09:07:28;;;;;;;3.85;2.95;;;;;;;27.76;40.49;99308.72;1662394;86;21052;-70
2022/07/27 09:09:55;;;;;;;3.55;3.00;;;;;;;27.83;40.16;99314.91;1668060;84;21099;-70
2022/07/27 09:12:27;;;;;;;4.08;2.65;;;;;;;27.79;40.25;99308.53;1666122;84;21048;-74
2022/07/27 09:15:13;;;;;;;5.17;3.33;;;;;;;27.88;40.22;99309.05;1681425;84;21191;-72
2022/07/27 09:17:43;;;;;;;2.72;2.27;;;;;;;27.95;40.07;99309.16;1673495;84;21004;-70
2022/07/27 09:20:18;;;;;;;3.95;2.80;;;;;;;28.03;40.19;99307.49;1665685;84;21048;-71
2022/07/27 09:22:51;;;;;;;4.62;3.20;;;;;;;28.17;40.11;99305.52;1648003;87;21001;-70
2022/07/27 09:25:23;;;;;;;2.92;2.62;;;;;;;28.27;39.78;99310.97;1663467;86;21095;-78
2022/07/27 09:27:57;;;;;;;6.58;3.50;;;;;;;28.26;38.86;99307.98;1656448;85;23326;-71
2022/07/27 09:30:24;;;;;;;19.32;16.90;;;;;;;28.29;38.71;99308.05;1703863;84;21386;-68
2022/07/27 09:33:04;;;;;;;7.58;6.87;;;;;;;28.37;38.97;99300.61;1687204;84;21599;-69
2022/07/27 09:35:33;;;;;;;4.25;3.87;;;;;;;28.45;39.21;99301.70;1668644;84;21095;-70
2022/07/27 09:38:24;;;;;;;7.55;3.65;;;;;;;28.48;39.27;99302.34;1671403;84;21006;-68
2022/07/27 09:41:05;;;;;;;5.65;3.87;;;;;;;28.58;39.03;99306.39;1676006;84;21267;-68
2022/07/27 09:43:53;;;;;;;8.68;3.52;;;;;;;28.63;38.62;99302.67;1684303;84;20995;-68
2022/07/27 09:46:36;;;;;;;3.92;3.37;;;;;;;28.63;38.76;99294.98;1682572;84;21086;-69
2022/07/27 09:49:05;;;;;;;5.80;3.35;;;;;;;28.65;38.38;99300.92;1636119;86;21043;-68
2022/07/27 09:51:33;;;;;;;3.15;2.95;;;;;;;28.60;38.58;99298.49;1658963;84;21533;-70
2022/07/27 09:54:06;;;;;;;3.58;3.27;;;;;;;28.70;38.40;99297.81;1641602;86;21152;-71
2022/07/27 09:56:33;;;;;;;4.65;3.90;;;;;;;28.78;38.11;99303.64;1661869;86;21100;-75
2022/07/27 09:59:02;;;;;;;3.40;3.10;;;;;;;28.90;38.16;99310.89;1662385;85;21108;-73
2022/07/27 10:01:33;;;;;;;8.65;3.25;;;;;;;28.94;37.09;99315.28;1665727;84;21031;-70
2022/07/27 10:04:04;;;;;;;4.78;3.45;;;;;;;28.87;36.74;99313.81;1661854;86;21638;-72
2022/07/27 10:06:31;;;;;;;3.52;3.22;;;;;;;28.84;37.14;99317.94;1655320;86;21655;-73
2022/07/27 10:08:58;;;;;;;3.33;2.87;;;;;;;28.88;37.04;99315.41;1675507;84;21680;-71
2022/07/27 10:14:14;;;;;;;4.22;2.58;;;;;;;29.05;36.74;99314.00;1825708;77;22658;-71
2022/07/27 10:16:41;;;;;;;3.22;2.92;;;;;;;29.02;36.27;99316.13;1789938;78;20890;-75
2022/07/27 10:19:21;;;;;;;3.90;3.58;;;;;;;28.94;36.65;99312.52;1795942;78;21169;-75
2022/07/27 10:21:48;;;;;;;8.00;3.47;;;;;;;28.91;36.95;99316.05;1796030;78;20952;-76
2022/07/27 10:24:32;;;;;;;3.27;2.98;;;;;;;28.89;36.64;99311.47;1787907;79;21023;-74
2022/07/27 10:27:17;;;;;;;5.20;3.45;;;;;;;28.95;36.66;99321.03;1787256;80;21027;-74
2022/07/27 10:29:46;;;;;;;3.50;3.08;;;;;;;29.06;36.63;99318.37;1775564;78;20924;-73
2022/07/27 10:32:25;;;;;;;3.87;3.55;;;;;;;29.13;36.30;99314.84;1787814;78;21204;-74
2022/07/27 10:34:56;;;;;;;3.02;2.72;;;;;;;29.10;36.19;99305.34;1799392;78;20891;-74
2022/07/27 10:37:34;;;;;;;2.55;2.35;;;;;;;29.04;36.45;99310.42;1788082;78;21002;-73
2022/07/27 10:42:50;;;;;;;3.47;3.17;;;;;;;29.15;36.51;99316.06;1748408;81;21060;-71
2022/07/27 10:45:18;;;;;;;6.65;3.52;;;;;;;29.23;36.38;99314.94;1782128;80;21083;-74
2022/07/27 10:48:03;;;;;;;5.53;3.85;;;;;;;29.28;35.93;99314.58;1738491;81;21500;-74
2022/07/27 10:50:32;;;;;;;5.97;4.08;;;;;;;29.28;35.93;99314.58;1758392;80;21052;-72
2022/07/27 10:53:07;;;;;;;5.58;3.30;;;;;;;29.38;36.04;99313.11;1780053;78;21484;-72
2022/07/27 10:55:41;;;;;;;6.05;3.10;;;;;;;29.41;35.90;99306.20;1818015;78;21488;-72
2022/07/27 10:58:22;;;;;;;4.60;3.12;;;;;;;29.39;35.99;99304.41;1820280;78;21774;-73
2022/07/27 11:00:55;;;;;;;2.83;2.50;;;;;;;29.38;35.92;99300.05;1803037;78;21004;-73
2022/07/27 11:03:27;;;;;;;3.60;3.10;;;;;;;29.48;35.92;99301.89;1781385;80;21047;-72
2022/07/27 11:06:09;;;;;;;4.12;3.00;;;;;;;29.48;36.06;99302.69;1787378;78;20972;-72
2022/07/27 11:08:42;;;;;;;3.17;2.72;;;;;;;29.46;36.51;99302.27;1787692;79;21463;-69
2022/07/27 11:11:17;;;;;;;4.03;3.37;;;;;;;29.56;36.45;99309.86;1789123;79;22038;-72
2022/07/27 11:13:46;;;;;;;3.58;2.95;;;;;;;29.66;36.07;99310.52;1792030;79;20893;-70
2022/07/27 11:16:15;;;;;;;3.35;3.10;;;;;;;29.81;36.17;99303.88;1789169;79;20991;-69
2022/07/27 11:18:44;;;;;;;5.30;3.35;;;;;;;29.89;35.88;99298.59;1788408;78;20958;-70
2022/07/27 11:21:25;;;;;;;2.77;2.50;;;;;;;29.97;35.64;99304.20;1771416;78;21078;-70
2022/07/27 11:23:55;;;;;;;10.78;3.08;;;;;;;29.96;35.47;99299.83;1809878;78;21244;-70
2022/07/27 11:26:24;;;;;;;3.25;2.95;;;;;;;29.76;35.64;99298.70;1808570;78;21568;-71
2022/07/27 11:28:51;;;;;;;7.47;5.40;;;;;;;29.76;35.82;99297.31;1809575;78;20932;-70
2022/07/27 11:31:19;;;;;;;4.10;3.80;;;;;;;29.83;35.89;99295.19;1809002;78;20975;-71
2022/07/27 11:33:55;;;;;;;3.98;2.65;;;;;;;29.93;35.90;99296.45;1808105;78;20979;-70
2022/07/27 11:36:25;;;;;;;4.90;3.50;;;;;;;29.98;35.81;99291.30;1817999;78;21136;-71
2022/07/27 11:38:53;;;;;;;3.12;2.72;;;;;;;30.06;35.44;99289.38;1801292;78;20960;-70
2022/07/27 11:41:29;;;;;;;4.10;3.70;;;;;;;30.07;35.57;99288.97;1791676;78;20975;-71
2022/07/27 11:44:02;;;;;;;3.55;3.25;;;;;;;30.09;35.67;99290.77;1810721;78;21541;-70
2022/07/27 11:46:32;;;;;;;4.22;3.83;;;;;;;30.22;35.65;99289.23;1808068;78;20995;-69
2022/07/27 11:49:08;;;;;;;4.33;3.60;;;;;;;30.34;35.22;99297.80;1818486;78;21027;-71
2022/07/27 11:51:38;;;;;;;4.80;3.30;;;;;;;30.38;35.01;99297.21;1814111;78;21116;-71